sensor_id;sensor_type;location;lat;lon;timestamp;P1;durP1;ratioP1;P2;durP2;ratioP2
21507;SDS011;10915;54.352;9.074;2023-05-02T00:00:12;25.80;;;5.73;;
21507;SDS011;10915;54.352;9.074;2023-05-02T00:02:38;18.87;;;5.80;;
21507;SDS011;10915;54.352;9.074;2023-05-02T00:05:04;21.77;;;4.97;;
21507;SDS011;10915;54.352;9.074;2023-05-02T00:07:31;17.87;;;6.03;;
21507;SDS011;10915;54.352;9.074;2023-05-02T00:09:57;16.27;;;4.83;;
21507;SDS011;10915;54.352;9.074;2023-05-02T00:12:23;15.17;;;4.83;;
21507;SDS011;10915;54.352;9.074;2023-05-02T00:14:48;21.50;;;5.50;;
21507;SDS011;10915;54.352;9.074;2023-05-02T00:17:18;19.10;;;5.27;;
21507;SDS011;10915;54.352;9.074;2023-05-02T00:19:44;19.43;;;5.83;;
21507;SDS011;10915;54.352;9.074;2023-05-02T00:22:10;20.77;;;5.43;;
21507;SDS011;10915;54.352;9.074;2023-05-02T00:24:35;21.07;;;5.93;;
21507;SDS011;10915;54.352;9.074;2023-05-02T00:27:01;24.23;;;6.40;;
21507;SDS011;10915;54.352;9.074;2023-05-02T00:29:27;21.40;;;6.40;;
21507;SDS011;10915;54.352;9.074;2023-05-02T00:31:53;19.60;;;5.80;;
21507;SDS011;10915;54.352;9.074;2023-05-02T00:34:19;19.83;;;5.83;;
21507;SDS011;10915;54.352;9.074;2023-05-02T00:36:44;14.53;;;5.60;;
21507;SDS011;10915;54.352;9.074;2023-05-02T00:39:10;21.50;;;6.17;;
21507;SDS011;10915;54.352;9.074;2023-05-02T00:41:35;18.83;;;5.67;;
21507;SDS011;10915;54.352;9.074;2023-05-02T00:44:01;21.67;;;6.57;;
21507;SDS011;10915;54.352;9.074;2023-05-02T00:46:27;22.40;;;5.37;;
21507;SDS011;10915;54.352;9.074;2023-05-02T00:48:53;24.67;;;6.60;;
21507;SDS011;10915;54.352;9.074;2023-05-02T00:51:19;23.33;;;6.20;;
21507;SDS011;10915;54.352;9.074;2023-05-02T00:53:44;20.30;;;5.60;;
21507;SDS011;10915;54.352;9.074;2023-05-02T00:56:10;26.53;;;6.63;;
21507;SDS011;10915;54.352;9.074;2023-05-02T00:58:37;22.07;;;5.77;;
21507;SDS011;10915;54.352;9.074;2023-05-02T01:09:21;18.80;;;5.20;;
21507;SDS011;10915;54.352;9.074;2023-05-02T01:12:03;18.50;;;6.07;;
21507;SDS011;10915;54.352;9.074;2023-05-02T01:14:40;26.27;;;6.30;;
21507;SDS011;10915;54.352;9.074;2023-05-02T01:17:08;17.47;;;5.53;;
21507;SDS011;10915;54.352;9.074;2023-05-02T01:19:38;14.93;;;4.80;;
21507;SDS011;10915;54.352;9.074;2023-05-02T01:22:08;22.17;;;5.97;;
21507;SDS011;10915;54.352;9.074;2023-05-02T01:30:35;17.53;;;5.20;;
21507;SDS011;10915;54.352;9.074;2023-05-02T01:33:02;22.13;;;5.87;;
21507;SDS011;10915;54.352;9.074;2023-05-02T01:35:29;24.33;;;5.70;;
21507;SDS011;10915;54.352;9.074;2023-05-02T01:37:57;18.17;;;5.87;;
21507;SDS011;10915;54.352;9.074;2023-05-02T01:40:26;19.80;;;5.80;;
21507;SDS011;10915;54.352;9.074;2023-05-02T01:42:54;22.57;;;5.70;;
21507;SDS011;10915;54.352;9.074;2023-05-02T01:45:21;23.20;;;6.53;;
21507;SDS011;10915;54.352;9.074;2023-05-02T01:47:49;23.97;;;6.27;;
21507;SDS011;10915;54.352;9.074;2023-05-02T01:50:19;16.77;;;5.23;;
21507;SDS011;10915;54.352;9.074;2023-05-02T01:52:48;21.40;;;5.33;;
21507;SDS011;10915;54.352;9.074;2023-05-02T01:55:16;18.57;;;5.60;;
21507;SDS011;10915;54.352;9.074;2023-05-02T01:57:45;19.50;;;5.40;;
21507;SDS011;10915;54.352;9.074;2023-05-02T02:00:12;22.53;;;6.17;;
21507;SDS011;10915;54.352;9.074;2023-05-02T02:02:40;27.30;;;5.50;;
21507;SDS011;10915;54.352;9.074;2023-05-02T02:05:07;20.20;;;6.10;;
21507;SDS011;10915;54.352;9.074;2023-05-02T02:07:35;18.47;;;6.20;;
21507;SDS011;10915;54.352;9.074;2023-05-02T02:10:01;14.93;;;4.77;;
21507;SDS011;10915;54.352;9.074;2023-05-02T02:14:59;17.53;;;4.97;;
21507;SDS011;10915;54.352;9.074;2023-05-02T02:17:35;14.20;;;4.97;;
21507;SDS011;10915;54.352;9.074;2023-05-02T02:20:04;27.07;;;6.17;;
21507;SDS011;10915;54.352;9.074;2023-05-02T02:22:33;16.93;;;6.23;;
21507;SDS011;10915;54.352;9.074;2023-05-02T02:25:04;18.20;;;5.63;;
21507;SDS011;10915;54.352;9.074;2023-05-02T02:27:32;20.00;;;5.30;;
21507;SDS011;10915;54.352;9.074;2023-05-02T02:29:58;17.23;;;5.03;;
21507;SDS011;10915;54.352;9.074;2023-05-02T02:32:23;14.60;;;5.30;;
21507;SDS011;10915;54.352;9.074;2023-05-02T02:34:49;14.13;;;4.67;;
21507;SDS011;10915;54.352;9.074;2023-05-02T02:37:17;14.67;;;5.10;;
21507;SDS011;10915;54.352;9.074;2023-05-02T02:42:34;16.03;;;4.93;;
21507;SDS011;10915;54.352;9.074;2023-05-02T02:47:57;15.60;;;5.03;;
21507;SDS011;10915;54.352;9.074;2023-05-02T02:56:09;15.87;;;4.70;;
21507;SDS011;10915;54.352;9.074;2023-05-02T03:01:19;13.33;;;4.77;;
21507;SDS011;10915;54.352;9.074;2023-05-02T03:03:47;16.13;;;4.50;;
21507;SDS011;10915;54.352;9.074;2023-05-02T03:06:13;17.90;;;4.63;;
21507;SDS011;10915;54.352;9.074;2023-05-02T03:08:41;15.70;;;5.13;;
21507;SDS011;10915;54.352;9.074;2023-05-02T03:11:07;13.87;;;4.47;;
21507;SDS011;10915;54.352;9.074;2023-05-02T03:13:34;15.77;;;3.93;;
21507;SDS011;10915;54.352;9.074;2023-05-02T03:18:56;14.90;;;4.00;;
21507;SDS011;10915;54.352;9.074;2023-05-02T03:21:22;13.47;;;4.07;;
21507;SDS011;10915;54.352;9.074;2023-05-02T03:23:47;17.27;;;4.00;;
21507;SDS011;10915;54.352;9.074;2023-05-02T03:26:13;14.27;;;3.40;;
21507;SDS011;10915;54.352;9.074;2023-05-02T03:28:39;11.30;;;3.77;;
21507;SDS011;10915;54.352;9.074;2023-05-02T03:31:04;9.53;;;3.33;;
21507;SDS011;10915;54.352;9.074;2023-05-02T03:33:30;12.57;;;3.63;;
21507;SDS011;10915;54.352;9.074;2023-05-02T03:35:56;8.47;;;3.70;;
21507;SDS011;10915;54.352;9.074;2023-05-02T03:38:22;10.67;;;3.60;;
21507;SDS011;10915;54.352;9.074;2023-05-02T03:40:48;11.33;;;3.60;;
21507;SDS011;10915;54.352;9.074;2023-05-02T03:43:13;10.20;;;3.73;;
21507;SDS011;10915;54.352;9.074;2023-05-02T03:45:39;8.07;;;3.70;;
21507;SDS011;10915;54.352;9.074;2023-05-02T03:48:05;13.17;;;4.10;;
21507;SDS011;10915;54.352;9.074;2023-05-02T03:50:30;13.53;;;3.80;;
21507;SDS011;10915;54.352;9.074;2023-05-02T03:52:56;14.67;;;3.93;;
21507;SDS011;10915;54.352;9.074;2023-05-02T03:55:22;12.23;;;3.63;;
21507;SDS011;10915;54.352;9.074;2023-05-02T03:57:47;10.23;;;3.37;;
21507;SDS011;10915;54.352;9.074;2023-05-02T04:00:13;14.77;;;3.47;;
21507;SDS011;10915;54.352;9.074;2023-05-02T04:02:39;8.97;;;2.80;;
21507;SDS011;10915;54.352;9.074;2023-05-02T04:05:04;9.80;;;2.83;;
21507;SDS011;10915;54.352;9.074;2023-05-02T04:07:30;12.67;;;3.27;;
21507;SDS011;10915;54.352;9.074;2023-05-02T04:09:56;5.40;;;2.47;;
21507;SDS011;10915;54.352;9.074;2023-05-02T04:12:21;13.10;;;3.33;;
21507;SDS011;10915;54.352;9.074;2023-05-02T04:14:47;6.77;;;2.43;;
21507;SDS011;10915;54.352;9.074;2023-05-02T04:17:13;8.37;;;2.47;;
21507;SDS011;10915;54.352;9.074;2023-05-02T04:19:39;9.27;;;3.50;;
21507;SDS011;10915;54.352;9.074;2023-05-02T04:22:05;7.00;;;2.37;;
21507;SDS011;10915;54.352;9.074;2023-05-02T04:24:31;7.17;;;2.37;;
21507;SDS011;10915;54.352;9.074;2023-05-02T04:26:56;9.60;;;2.70;;
21507;SDS011;10915;54.352;9.074;2023-05-02T04:29:22;11.23;;;3.27;;
21507;SDS011;10915;54.352;9.074;2023-05-02T04:31:47;10.87;;;2.83;;
21507;SDS011;10915;54.352;9.074;2023-05-02T04:34:14;8.07;;;2.53;;
21507;SDS011;10915;54.352;9.074;2023-05-02T04:36:40;12.23;;;2.90;;
21507;SDS011;10915;54.352;9.074;2023-05-02T04:39:06;7.10;;;2.47;;
21507;SDS011;10915;54.352;9.074;2023-05-02T04:41:32;6.27;;;2.07;;
21507;SDS011;10915;54.352;9.074;2023-05-02T04:43:58;9.50;;;2.50;;
21507;SDS011;10915;54.352;9.074;2023-05-02T04:46:23;7.20;;;2.30;;
21507;SDS011;10915;54.352;9.074;2023-05-02T04:48:49;5.93;;;2.17;;
21507;SDS011;10915;54.352;9.074;2023-05-02T04:51:14;6.78;;;2.10;;
21507;SDS011;10915;54.352;9.074;2023-05-02T04:53:40;6.68;;;2.20;;
21507;SDS011;10915;54.352;9.074;2023-05-02T04:58:34;7.70;;;2.27;;
21507;SDS011;10915;54.352;9.074;2023-05-02T05:01:00;8.43;;;2.20;;
21507;SDS011;10915;54.352;9.074;2023-05-02T05:03:26;8.73;;;2.43;;
21507;SDS011;10915;54.352;9.074;2023-05-02T05:05:54;11.47;;;2.43;;
21507;SDS011;10915;54.352;9.074;2023-05-02T05:08:20;8.03;;;2.60;;
21507;SDS011;10915;54.352;9.074;2023-05-02T05:10:46;10.77;;;2.37;;
21507;SDS011;10915;54.352;9.074;2023-05-02T05:13:11;6.27;;;2.50;;
21507;SDS011;10915;54.352;9.074;2023-05-02T05:15:38;9.40;;;2.67;;
21507;SDS011;10915;54.352;9.074;2023-05-02T05:18:04;8.57;;;2.50;;
21507;SDS011;10915;54.352;9.074;2023-05-02T05:20:30;10.30;;;2.60;;
21507;SDS011;10915;54.352;9.074;2023-05-02T05:22:56;7.83;;;2.37;;
21507;SDS011;10915;54.352;9.074;2023-05-02T05:25:22;8.83;;;2.33;;
21507;SDS011;10915;54.352;9.074;2023-05-02T05:27:47;10.43;;;2.67;;
21507;SDS011;10915;54.352;9.074;2023-05-02T05:30:13;8.07;;;2.67;;
21507;SDS011;10915;54.352;9.074;2023-05-02T05:32:38;7.73;;;2.10;;
21507;SDS011;10915;54.352;9.074;2023-05-02T05:35:04;6.93;;;2.40;;
21507;SDS011;10915;54.352;9.074;2023-05-02T05:37:30;8.23;;;2.80;;
21507;SDS011;10915;54.352;9.074;2023-05-02T05:39:55;11.33;;;2.57;;
21507;SDS011;10915;54.352;9.074;2023-05-02T05:42:21;8.60;;;2.77;;
21507;SDS011;10915;54.352;9.074;2023-05-02T05:44:46;7.73;;;2.70;;
21507;SDS011;10915;54.352;9.074;2023-05-02T05:47:17;11.20;;;2.80;;
21507;SDS011;10915;54.352;9.074;2023-05-02T05:49:43;9.20;;;2.67;;
21507;SDS011;10915;54.352;9.074;2023-05-02T05:52:09;7.83;;;2.33;;
21507;SDS011;10915;54.352;9.074;2023-05-02T05:54:35;8.97;;;3.13;;
21507;SDS011;10915;54.352;9.074;2023-05-02T05:57:00;14.20;;;2.93;;
21507;SDS011;10915;54.352;9.074;2023-05-02T05:59:27;11.80;;;2.90;;
21507;SDS011;10915;54.352;9.074;2023-05-02T06:01:53;9.33;;;2.40;;
21507;SDS011;10915;54.352;9.074;2023-05-02T06:04:18;8.87;;;2.50;;
21507;SDS011;10915;54.352;9.074;2023-05-02T06:06:44;5.33;;;2.20;;
21507;SDS011;10915;54.352;9.074;2023-05-02T06:09:10;8.97;;;2.60;;
21507;SDS011;10915;54.352;9.074;2023-05-02T06:11:36;8.13;;;2.47;;
21507;SDS011;10915;54.352;9.074;2023-05-02T06:14:02;7.73;;;2.77;;
21507;SDS011;10915;54.352;9.074;2023-05-02T06:16:27;6.43;;;2.20;;
21507;SDS011;10915;54.352;9.074;2023-05-02T06:18:53;9.77;;;2.80;;
21507;SDS011;10915;54.352;9.074;2023-05-02T06:21:19;12.03;;;2.90;;
21507;SDS011;10915;54.352;9.074;2023-05-02T06:23:44;11.07;;;2.23;;
21507;SDS011;10915;54.352;9.074;2023-05-02T06:26:10;8.83;;;2.53;;
21507;SDS011;10915;54.352;9.074;2023-05-02T06:28:36;8.82;;;3.05;;
21507;SDS011;10915;54.352;9.074;2023-05-02T06:31:02;5.27;;;2.10;;
21507;SDS011;10915;54.352;9.074;2023-05-02T06:33:30;7.83;;;2.70;;
21507;SDS011;10915;54.352;9.074;2023-05-02T06:35:56;8.47;;;2.33;;
21507;SDS011;10915;54.352;9.074;2023-05-02T06:38:22;6.63;;;2.13;;
21507;SDS011;10915;54.352;9.074;2023-05-02T06:40:49;5.73;;;2.10;;
21507;SDS011;10915;54.352;9.074;2023-05-02T06:43:15;6.80;;;2.10;;
21507;SDS011;10915;54.352;9.074;2023-05-02T06:45:41;7.65;;;2.10;;
21507;SDS011;10915;54.352;9.074;2023-05-02T06:48:07;5.93;;;1.77;;
21507;SDS011;10915;54.352;9.074;2023-05-02T06:50:33;7.63;;;2.30;;
21507;SDS011;10915;54.352;9.074;2023-05-02T06:52:59;6.13;;;1.80;;
21507;SDS011;10915;54.352;9.074;2023-05-02T06:55:25;6.03;;;1.90;;
21507;SDS011;10915;54.352;9.074;2023-05-02T06:57:51;5.63;;;2.30;;
21507;SDS011;10915;54.352;9.074;2023-05-02T07:00:17;8.33;;;2.30;;
21507;SDS011;10915;54.352;9.074;2023-05-02T07:02:44;8.77;;;2.47;;
21507;SDS011;10915;54.352;9.074;2023-05-02T07:05:11;8.03;;;2.57;;
21507;SDS011;10915;54.352;9.074;2023-05-02T07:07:37;6.33;;;2.10;;
21507;SDS011;10915;54.352;9.074;2023-05-02T07:10:03;5.03;;;1.77;;
21507;SDS011;10915;54.352;9.074;2023-05-02T07:12:29;4.67;;;1.93;;
21507;SDS011;10915;54.352;9.074;2023-05-02T07:14:54;7.60;;;2.30;;
21507;SDS011;10915;54.352;9.074;2023-05-02T07:17:20;6.43;;;2.20;;
21507;SDS011;10915;54.352;9.074;2023-05-02T07:19:46;7.23;;;1.67;;
21507;SDS011;10915;54.352;9.074;2023-05-02T07:22:11;6.70;;;1.93;;
21507;SDS011;10915;54.352;9.074;2023-05-02T07:24:39;5.87;;;1.90;;
21507;SDS011;10915;54.352;9.074;2023-05-02T07:27:05;8.13;;;2.27;;
21507;SDS011;10915;54.352;9.074;2023-05-02T07:29:32;8.10;;;2.20;;
21507;SDS011;10915;54.352;9.074;2023-05-02T07:31:58;5.70;;;1.73;;
21507;SDS011;10915;54.352;9.074;2023-05-02T07:34:24;8.27;;;1.80;;
21507;SDS011;10915;54.352;9.074;2023-05-02T07:36:49;6.07;;;1.70;;
21507;SDS011;10915;54.352;9.074;2023-05-02T07:39:15;7.70;;;2.10;;
21507;SDS011;10915;54.352;9.074;2023-05-02T07:41:40;7.60;;;1.80;;
21507;SDS011;10915;54.352;9.074;2023-05-02T07:44:06;6.67;;;1.80;;
21507;SDS011;10915;54.352;9.074;2023-05-02T07:46:31;4.57;;;1.67;;
21507;SDS011;10915;54.352;9.074;2023-05-02T07:48:57;5.87;;;1.30;;
21507;SDS011;10915;54.352;9.074;2023-05-02T07:51:23;7.93;;;1.43;;
21507;SDS011;10915;54.352;9.074;2023-05-02T07:53:50;6.20;;;1.60;;
21507;SDS011;10915;54.352;9.074;2023-05-02T07:56:21;5.57;;;1.40;;
21507;SDS011;10915;54.352;9.074;2023-05-02T07:58:46;4.17;;;1.30;;
21507;SDS011;10915;54.352;9.074;2023-05-02T08:01:12;6.53;;;1.67;;
21507;SDS011;10915;54.352;9.074;2023-05-02T08:03:37;5.72;;;1.55;;
21507;SDS011;10915;54.352;9.074;2023-05-02T08:06:03;4.83;;;1.33;;
21507;SDS011;10915;54.352;9.074;2023-05-02T08:08:28;3.47;;;1.20;;
21507;SDS011;10915;54.352;9.074;2023-05-02T08:10:54;4.55;;;1.30;;
21507;SDS011;10915;54.352;9.074;2023-05-02T08:13:19;5.30;;;1.27;;
21507;SDS011;10915;54.352;9.074;2023-05-02T08:15:45;6.90;;;1.43;;
21507;SDS011;10915;54.352;9.074;2023-05-02T08:18:11;7.97;;;1.27;;
21507;SDS011;10915;54.352;9.074;2023-05-02T08:20:36;5.30;;;1.43;;
21507;SDS011;10915;54.352;9.074;2023-05-02T08:23:02;6.80;;;1.53;;
21507;SDS011;10915;54.352;9.074;2023-05-02T08:25:27;6.23;;;2.03;;
21507;SDS011;10915;54.352;9.074;2023-05-02T08:27:54;6.87;;;1.50;;
21507;SDS011;10915;54.352;9.074;2023-05-02T08:30:19;5.00;;;1.60;;
21507;SDS011;10915;54.352;9.074;2023-05-02T08:32:45;4.57;;;1.33;;
21507;SDS011;10915;54.352;9.074;2023-05-02T08:35:11;6.20;;;1.70;;
21507;SDS011;10915;54.352;9.074;2023-05-02T08:37:37;6.13;;;1.93;;
21507;SDS011;10915;54.352;9.074;2023-05-02T08:40:03;6.30;;;2.30;;
21507;SDS011;10915;54.352;9.074;2023-05-02T08:42:30;5.13;;;1.87;;
21507;SDS011;10915;54.352;9.074;2023-05-02T08:44:57;9.07;;;2.53;;
21507;SDS011;10915;54.352;9.074;2023-05-02T08:47:23;4.30;;;1.50;;
21507;SDS011;10915;54.352;9.074;2023-05-02T08:49:51;10.20;;;2.00;;
21507;SDS011;10915;54.352;9.074;2023-05-02T08:52:19;9.23;;;1.80;;
21507;SDS011;10915;54.352;9.074;2023-05-02T08:54:46;5.77;;;1.63;;
21507;SDS011;10915;54.352;9.074;2023-05-02T08:57:13;8.27;;;2.00;;
21507;SDS011;10915;54.352;9.074;2023-05-02T08:59:38;8.87;;;1.80;;
21507;SDS011;10915;54.352;9.074;2023-05-02T09:05:14;9.20;;;2.03;;
21507;SDS011;10915;54.352;9.074;2023-05-02T09:07:45;4.47;;;1.40;;
21507;SDS011;10915;54.352;9.074;2023-05-02T09:10:12;3.57;;;1.27;;
21507;SDS011;10915;54.352;9.074;2023-05-02T09:12:39;5.53;;;1.43;;
21507;SDS011;10915;54.352;9.074;2023-05-02T09:15:08;6.67;;;1.90;;
21507;SDS011;10915;54.352;9.074;2023-05-02T09:17:42;7.27;;;2.07;;
21507;SDS011;10915;54.352;9.074;2023-05-02T09:20:09;8.37;;;1.83;;
21507;SDS011;10915;54.352;9.074;2023-05-02T09:22:36;4.43;;;1.33;;
21507;SDS011;10915;54.352;9.074;2023-05-02T09:25:03;4.97;;;1.67;;
21507;SDS011;10915;54.352;9.074;2023-05-02T09:27:33;7.77;;;1.97;;
21507;SDS011;10915;54.352;9.074;2023-05-02T09:30:21;6.10;;;1.73;;
21507;SDS011;10915;54.352;9.074;2023-05-02T09:32:48;5.23;;;1.70;;
21507;SDS011;10915;54.352;9.074;2023-05-02T09:35:23;5.67;;;1.77;;
21507;SDS011;10915;54.352;9.074;2023-05-02T09:37:50;6.10;;;1.80;;
21507;SDS011;10915;54.352;9.074;2023-05-02T09:40:17;8.00;;;1.80;;
21507;SDS011;10915;54.352;9.074;2023-05-02T09:42:43;5.60;;;1.87;;
21507;SDS011;10915;54.352;9.074;2023-05-02T09:45:17;7.00;;;1.83;;
21507;SDS011;10915;54.352;9.074;2023-05-02T09:47:44;9.97;;;1.57;;
21507;SDS011;10915;54.352;9.074;2023-05-02T09:50:11;6.80;;;1.50;;
21507;SDS011;10915;54.352;9.074;2023-05-02T09:53:05;9.50;;;1.90;;
21507;SDS011;10915;54.352;9.074;2023-05-02T09:55:32;8.73;;;2.17;;
21507;SDS011;10915;54.352;9.074;2023-05-02T09:57:58;6.53;;;1.70;;
21507;SDS011;10915;54.352;9.074;2023-05-02T10:00:37;7.90;;;1.80;;
21507;SDS011;10915;54.352;9.074;2023-05-02T10:03:07;7.33;;;1.87;;
21507;SDS011;10915;54.352;9.074;2023-05-02T10:05:36;6.57;;;2.03;;
21507;SDS011;10915;54.352;9.074;2023-05-02T10:08:04;5.90;;;1.57;;
21507;SDS011;10915;54.352;9.074;2023-05-02T10:10:31;7.63;;;2.20;;
21507;SDS011;10915;54.352;9.074;2023-05-02T10:13:01;8.80;;;2.10;;
21507;SDS011;10915;54.352;9.074;2023-05-02T10:15:28;7.77;;;2.07;;
21507;SDS011;10915;54.352;9.074;2023-05-02T10:17:57;8.00;;;2.47;;
21507;SDS011;10915;54.352;9.074;2023-05-02T10:20:27;6.70;;;2.10;;
21507;SDS011;10915;54.352;9.074;2023-05-02T10:22:59;8.80;;;1.97;;
21507;SDS011;10915;54.352;9.074;2023-05-02T10:25:28;7.70;;;2.53;;
21507;SDS011;10915;54.352;9.074;2023-05-02T10:27:57;6.97;;;2.13;;
21507;SDS011;10915;54.352;9.074;2023-05-02T10:30:23;8.47;;;2.03;;
21507;SDS011;10915;54.352;9.074;2023-05-02T10:32:50;7.57;;;2.30;;
21507;SDS011;10915;54.352;9.074;2023-05-02T10:35:18;9.10;;;2.10;;
21507;SDS011;10915;54.352;9.074;2023-05-02T10:37:45;12.83;;;2.20;;
21507;SDS011;10915;54.352;9.074;2023-05-02T10:40:12;5.93;;;1.97;;
21507;SDS011;10915;54.352;9.074;2023-05-02T10:42:41;9.83;;;2.07;;
21507;SDS011;10915;54.352;9.074;2023-05-02T10:45:28;5.10;;;1.97;;
21507;SDS011;10915;54.352;9.074;2023-05-02T10:48:14;8.97;;;2.47;;
21507;SDS011;10915;54.352;9.074;2023-05-02T10:50:44;8.10;;;2.40;;
21507;SDS011;10915;54.352;9.074;2023-05-02T10:53:31;6.93;;;1.97;;
21507;SDS011;10915;54.352;9.074;2023-05-02T10:58:38;6.83;;;2.13;;
21507;SDS011;10915;54.352;9.074;2023-05-02T11:06:25;13.53;;;2.30;;
21507;SDS011;10915;54.352;9.074;2023-05-02T11:08:52;7.13;;;1.87;;
21507;SDS011;10915;54.352;9.074;2023-05-02T11:11:40;4.17;;;1.67;;
21507;SDS011;10915;54.352;9.074;2023-05-02T11:14:06;8.03;;;2.47;;
21507;SDS011;10915;54.352;9.074;2023-05-02T11:19:26;6.07;;;2.00;;
21507;SDS011;10915;54.352;9.074;2023-05-02T11:22:29;9.60;;;2.03;;
21507;SDS011;10915;54.352;9.074;2023-05-02T11:24:45;6.97;;;2.50;;
21507;SDS011;10915;54.352;9.074;2023-05-02T11:32:22;6.27;;;1.80;;
21507;SDS011;10915;54.352;9.074;2023-05-02T11:35:20;6.23;;;2.00;;
21507;SDS011;10915;54.352;9.074;2023-05-02T11:37:59;9.57;;;2.03;;
21507;SDS011;10915;54.352;9.074;2023-05-02T11:40:28;6.60;;;2.00;;
21507;SDS011;10915;54.352;9.074;2023-05-02T11:42:55;8.00;;;2.10;;
21507;SDS011;10915;54.352;9.074;2023-05-02T11:45:31;9.57;;;2.13;;
21507;SDS011;10915;54.352;9.074;2023-05-02T11:48:10;7.07;;;1.80;;
21507;SDS011;10915;54.352;9.074;2023-05-02T11:50:41;4.27;;;1.70;;
21507;SDS011;10915;54.352;9.074;2023-05-02T11:53:18;7.57;;;1.95;;
21507;SDS011;10915;54.352;9.074;2023-05-02T11:55:56;9.37;;;1.80;;
21507;SDS011;10915;54.352;9.074;2023-05-02T11:58:27;5.07;;;1.53;;
21507;SDS011;10915;54.352;9.074;2023-05-02T12:00:56;8.63;;;1.70;;
21507;SDS011;10915;54.352;9.074;2023-05-02T12:03:28;5.93;;;1.60;;
21507;SDS011;10915;54.352;9.074;2023-05-02T12:06:12;7.90;;;1.90;;
21507;SDS011;10915;54.352;9.074;2023-05-02T12:08:42;3.63;;;1.23;;
21507;SDS011;10915;54.352;9.074;2023-05-02T12:11:29;7.60;;;1.80;;
21507;SDS011;10915;54.352;9.074;2023-05-02T12:13:55;5.83;;;1.40;;
21507;SDS011;10915;54.352;9.074;2023-05-02T12:16:21;4.57;;;1.40;;
21507;SDS011;10915;54.352;9.074;2023-05-02T12:18:47;4.53;;;1.17;;
21507;SDS011;10915;54.352;9.074;2023-05-02T12:21:13;3.53;;;1.53;;
21507;SDS011;10915;54.352;9.074;2023-05-02T12:23:39;5.83;;;1.67;;
21507;SDS011;10915;54.352;9.074;2023-05-02T12:26:15;6.07;;;1.57;;
21507;SDS011;10915;54.352;9.074;2023-05-02T12:28:51;5.10;;;1.40;;
21507;SDS011;10915;54.352;9.074;2023-05-02T12:31:22;6.10;;;1.50;;
21507;SDS011;10915;54.352;9.074;2023-05-02T12:33:48;5.73;;;1.60;;
21507;SDS011;10915;54.352;9.074;2023-05-02T12:36:16;4.13;;;1.37;;
21507;SDS011;10915;54.352;9.074;2023-05-02T12:38:52;3.97;;;1.50;;
21507;SDS011;10915;54.352;9.074;2023-05-02T12:41:38;7.47;;;1.30;;
21507;SDS011;10915;54.352;9.074;2023-05-02T12:44:09;7.63;;;1.80;;
21507;SDS011;10915;54.352;9.074;2023-05-02T12:46:35;6.20;;;1.97;;
21507;SDS011;10915;54.352;9.074;2023-05-02T12:49:04;8.03;;;1.70;;
21507;SDS011;10915;54.352;9.074;2023-05-02T12:51:33;6.60;;;1.80;;
21507;SDS011;10915;54.352;9.074;2023-05-02T12:53:59;5.63;;;1.33;;
21507;SDS011;10915;54.352;9.074;2023-05-02T12:56:24;5.82;;;1.35;;
21507;SDS011;10915;54.352;9.074;2023-05-02T12:58:56;4.33;;;1.10;;
21507;SDS011;10915;54.352;9.074;2023-05-02T13:01:27;8.67;;;1.63;;
21507;SDS011;10915;54.352;9.074;2023-05-02T13:03:53;7.73;;;1.57;;
21507;SDS011;10915;54.352;9.074;2023-05-02T13:06:19;8.93;;;1.63;;
21507;SDS011;10915;54.352;9.074;2023-05-02T13:08:44;8.13;;;1.73;;
21507;SDS011;10915;54.352;9.074;2023-05-02T13:11:10;8.23;;;1.83;;
21507;SDS011;10915;54.352;9.074;2023-05-02T13:13:38;6.17;;;1.50;;
21507;SDS011;10915;54.352;9.074;2023-05-02T13:16:03;8.50;;;2.03;;
21507;SDS011;10915;54.352;9.074;2023-05-02T13:18:29;10.50;;;2.00;;
21507;SDS011;10915;54.352;9.074;2023-05-02T13:20:55;7.43;;;2.07;;
21507;SDS011;10915;54.352;9.074;2023-05-02T13:23:20;5.10;;;1.50;;
21507;SDS011;10915;54.352;9.074;2023-05-02T13:25:46;6.23;;;1.20;;
21507;SDS011;10915;54.352;9.074;2023-05-02T13:28:11;4.20;;;1.13;;
21507;SDS011;10915;54.352;9.074;2023-05-02T13:30:37;7.50;;;1.60;;
21507;SDS011;10915;54.352;9.074;2023-05-02T13:33:03;6.27;;;1.67;;
21507;SDS011;10915;54.352;9.074;2023-05-02T13:35:28;4.47;;;1.20;;
21507;SDS011;10915;54.352;9.074;2023-05-02T13:37:54;2.53;;;0.83;;
21507;SDS011;10915;54.352;9.074;2023-05-02T13:40:19;4.50;;;1.13;;
21507;SDS011;10915;54.352;9.074;2023-05-02T13:42:45;6.90;;;1.60;;
21507;SDS011;10915;54.352;9.074;2023-05-02T13:45:10;8.70;;;1.50;;
21507;SDS011;10915;54.352;9.074;2023-05-02T13:47:36;6.77;;;1.33;;
21507;SDS011;10915;54.352;9.074;2023-05-02T13:50:02;4.45;;;1.40;;
21507;SDS011;10915;54.352;9.074;2023-05-02T13:52:27;6.43;;;1.30;;
21507;SDS011;10915;54.352;9.074;2023-05-02T13:54:53;6.70;;;1.53;;
21507;SDS011;10915;54.352;9.074;2023-05-02T13:57:19;6.00;;;1.30;;
21507;SDS011;10915;54.352;9.074;2023-05-02T13:59:44;5.43;;;1.50;;
21507;SDS011;10915;54.352;9.074;2023-05-02T14:02:10;3.67;;;0.97;;
21507;SDS011;10915;54.352;9.074;2023-05-02T14:04:35;6.43;;;1.67;;
21507;SDS011;10915;54.352;9.074;2023-05-02T14:07:01;8.73;;;1.37;;
21507;SDS011;10915;54.352;9.074;2023-05-02T14:09:27;6.87;;;1.23;;
21507;SDS011;10915;54.352;9.074;2023-05-02T14:11:52;5.33;;;1.33;;
21507;SDS011;10915;54.352;9.074;2023-05-02T14:14:19;5.73;;;0.93;;
21507;SDS011;10915;54.352;9.074;2023-05-02T14:16:45;5.80;;;2.13;;
21507;SDS011;10915;54.352;9.074;2023-05-02T14:19:10;4.37;;;1.00;;
21507;SDS011;10915;54.352;9.074;2023-05-02T14:21:36;4.93;;;1.17;;
21507;SDS011;10915;54.352;9.074;2023-05-02T14:24:03;4.77;;;1.40;;
21507;SDS011;10915;54.352;9.074;2023-05-02T14:26:30;6.13;;;1.03;;
21507;SDS011;10915;54.352;9.074;2023-05-02T14:28:56;6.63;;;2.03;;
21507;SDS011;10915;54.352;9.074;2023-05-02T14:31:22;5.53;;;1.50;;
21507;SDS011;10915;54.352;9.074;2023-05-02T14:33:48;6.23;;;1.23;;
21507;SDS011;10915;54.352;9.074;2023-05-02T14:36:13;6.23;;;1.70;;
21507;SDS011;10915;54.352;9.074;2023-05-02T14:38:39;6.10;;;1.50;;
21507;SDS011;10915;54.352;9.074;2023-05-02T14:41:04;3.83;;;1.20;;
21507;SDS011;10915;54.352;9.074;2023-05-02T14:43:30;2.83;;;0.90;;
21507;SDS011;10915;54.352;9.074;2023-05-02T14:45:56;6.67;;;1.40;;
21507;SDS011;10915;54.352;9.074;2023-05-02T14:48:22;6.63;;;1.23;;
21507;SDS011;10915;54.352;9.074;2023-05-02T14:50:48;3.90;;;1.13;;
21507;SDS011;10915;54.352;9.074;2023-05-02T14:53:14;4.40;;;1.30;;
21507;SDS011;10915;54.352;9.074;2023-05-02T14:55:39;6.17;;;1.20;;
21507;SDS011;10915;54.352;9.074;2023-05-02T14:58:05;9.63;;;1.67;;
21507;SDS011;10915;54.352;9.074;2023-05-02T15:00:36;5.80;;;1.13;;
21507;SDS011;10915;54.352;9.074;2023-05-02T15:03:05;5.53;;;1.13;;
21507;SDS011;10915;54.352;9.074;2023-05-02T15:05:31;8.03;;;1.30;;
21507;SDS011;10915;54.352;9.074;2023-05-02T15:07:57;4.27;;;1.20;;
21507;SDS011;10915;54.352;9.074;2023-05-02T15:10:23;7.10;;;1.20;;
21507;SDS011;10915;54.352;9.074;2023-05-02T15:12:49;9.33;;;1.40;;
21507;SDS011;10915;54.352;9.074;2023-05-02T15:15:18;9.60;;;1.80;;
21507;SDS011;10915;54.352;9.074;2023-05-02T15:17:50;5.20;;;1.20;;
21507;SDS011;10915;54.352;9.074;2023-05-02T15:20:16;5.15;;;1.25;;
21507;SDS011;10915;54.352;9.074;2023-05-02T15:22:42;5.60;;;1.30;;
21507;SDS011;10915;54.352;9.074;2023-05-02T15:25:08;6.28;;;1.50;;
21507;SDS011;10915;54.352;9.074;2023-05-02T15:27:33;3.43;;;1.13;;
21507;SDS011;10915;54.352;9.074;2023-05-02T15:29:59;7.03;;;1.60;;
21507;SDS011;10915;54.352;9.074;2023-05-02T15:32:26;7.07;;;1.48;;
21507;SDS011;10915;54.352;9.074;2023-05-02T15:34:52;4.70;;;1.23;;
21507;SDS011;10915;54.352;9.074;2023-05-02T15:37:18;2.80;;;1.13;;
21507;SDS011;10915;54.352;9.074;2023-05-02T15:39:44;5.57;;;0.97;;